KAIG

Langlade County Airport

Antigo, Wisconsin, USA
METAR KAIG 172255Z AUTO 31003KT 10SM BKN050 23/11 A3013 RMK AO2 T02250106
Observed Flight Rules
Jul-17 @ 22:55 UTC (25 minutes ago) Visual Flight Rules
Wind Visibility Clouds
310° at 3 knots 10 miles
  • Broken at 5,000' AGL
Temperatures Readings
Current 23°C / 73°F
Dewpoint 11°C / 52°F
Humidity 47%
Altimeter 30.13" Hg
Pressure 1020 hPa
Elevation 464
METAR KAIG 172255Z AUTO 31003KT 10SM BKN050 23/11 A3013 RMK AO2 T02250106
Observed Flight Rules
Jul-17 @ 22:55 UTC
(25 minutes ago)
VFR
Wind Visibility
310° at 3 knots 10 miles
Clouds
  • Broken at 5,000' AGL
Temperature Dewpoint
23°C / 73°F 11°C / 52°F
Humidity Altimeter Pressure
47% 30.13" Hg 1020 hPa